sensor_id;sensor_type;location;lat;lon;timestamp;pressure;altitude;pressure_sealevel;temperature;humidity
11888;BME280;6003;42.756;23.130;2023-03-11T00:02:13;154535.75;;;8.26;100.00
11888;BME280;6003;42.756;23.130;2023-03-11T00:04:39;154540.97;;;8.28;100.00
11888;BME280;6003;42.756;23.130;2023-03-11T00:07:07;154538.34;;;8.27;100.00
11888;BME280;6003;42.756;23.130;2023-03-11T00:09:35;154542.28;;;8.28;100.00
11888;BME280;6003;42.756;23.130;2023-03-11T00:12:03;154533.06;;;8.25;100.00
11888;BME280;6003;42.756;23.130;2023-03-11T00:14:41;154533.06;;;8.25;100.00
11888;BME280;6003;42.756;23.130;2023-03-11T00:17:08;154551.56;;;8.32;100.00
11888;BME280;6003;42.756;23.130;2023-03-11T00:19:35;154554.19;;;8.33;100.00
11888;BME280;6003;42.756;23.130;2023-03-11T00:22:02;154554.19;;;8.33;100.00
11888;BME280;6003;42.756;23.130;2023-03-11T00:24:29;154543.66;;;8.29;100.00
11888;BME280;6003;42.756;23.130;2023-03-11T00:26:56;154542.28;;;8.28;100.00
11888;BME280;6003;42.756;23.130;2023-03-11T00:29:23;154547.59;;;8.30;100.00
11888;BME280;6003;42.756;23.130;2023-03-11T00:31:51;154559.47;;;8.35;100.00
11888;BME280;6003;42.756;23.130;2023-03-11T00:34:18;154585.88;;;8.45;100.00
11888;BME280;6003;42.756;23.130;2023-03-11T00:36:45;154603.09;;;8.52;100.00
11888;BME280;6003;42.756;23.130;2023-03-11T00:39:12;154622.84;;;8.59;100.00
11888;BME280;6003;42.756;23.130;2023-03-11T00:41:39;154643.97;;;8.68;100.00
11888;BME280;6003;42.756;23.130;2023-03-11T00:44:06;154657.16;;;8.73;100.00
11888;BME280;6003;42.756;23.130;2023-03-11T00:46:33;154671.69;;;8.78;100.00
11888;BME280;6003;42.756;23.130;2023-03-11T00:49:01;154659.78;;;8.74;100.00
11888;BME280;6003;42.756;23.130;2023-03-11T00:51:28;154658.50;;;8.73;100.00
11888;BME280;6003;42.756;23.130;2023-03-11T00:54:00;154629.44;;;8.62;100.00
11888;BME280;6003;42.756;23.130;2023-03-11T00:56:27;154628.13;;;8.62;100.00
11888;BME280;6003;42.756;23.130;2023-03-11T00:58:55;154638.66;;;8.66;100.00
11888;BME280;6003;42.756;23.130;2023-03-11T01:01:22;154613.63;;;8.56;100.00
11888;BME280;6003;42.756;23.130;2023-03-11T01:03:49;154604.38;;;8.52;100.00
11888;BME280;6003;42.756;23.130;2023-03-11T01:06:17;154604.38;;;8.52;100.00
11888;BME280;6003;42.756;23.130;2023-03-11T01:08:44;154592.50;;;8.48;100.00
11888;BME280;6003;42.756;23.130;2023-03-11T01:11:11;154585.88;;;8.45;100.00
11888;BME280;6003;42.756;23.130;2023-03-11T01:13:38;154558.16;;;8.34;100.00
11888;BME280;6003;42.756;23.130;2023-03-11T01:16:06;154523.84;;;8.21;100.00
11888;BME280;6003;42.756;23.130;2023-03-11T01:18:33;154504.03;;;8.13;100.00
11888;BME280;6003;42.756;23.130;2023-03-11T01:21:00;154482.91;;;8.05;100.00
11888;BME280;6003;42.756;23.130;2023-03-11T01:23:28;154475.00;;;8.02;100.00
11888;BME280;6003;42.756;23.130;2023-03-11T01:25:57;154475.00;;;8.02;100.00
11888;BME280;6003;42.756;23.130;2023-03-11T01:28:24;154461.88;;;7.97;100.00
11888;BME280;6003;42.756;23.130;2023-03-11T01:30:51;154455.25;;;7.95;100.00
11888;BME280;6003;42.756;23.130;2023-03-11T01:33:18;154443.38;;;7.90;100.00
11888;BME280;6003;42.756;23.130;2023-03-11T01:35:46;154406.44;;;7.76;100.00
11888;BME280;6003;42.756;23.130;2023-03-11T01:38:13;154378.72;;;7.65;100.00
11888;BME280;6003;42.756;23.130;2023-03-11T01:40:45;154380.09;;;7.65;100.00
11888;BME280;6003;42.756;23.130;2023-03-11T01:43:45;154380.09;;;7.65;100.00
11888;BME280;6003;42.756;23.130;2023-03-11T01:46:16;154362.91;;;7.59;100.00
11888;BME280;6003;42.756;23.130;2023-03-11T01:48:45;154382.72;;;7.66;100.00
11888;BME280;6003;42.756;23.130;2023-03-11T01:51:13;154399.84;;;7.73;100.00
11888;BME280;6003;42.756;23.130;2023-03-11T01:53:41;154415.66;;;7.79;100.00
11888;BME280;6003;42.756;23.130;2023-03-11T01:56:09;154422.25;;;7.82;100.00
11888;BME280;6003;42.756;23.130;2023-03-11T01:58:38;154435.47;;;7.87;100.00
11888;BME280;6003;42.756;23.130;2023-03-11T02:01:10;154438.06;;;7.88;100.00
11888;BME280;6003;42.756;23.130;2023-03-11T02:03:39;154424.94;;;7.83;100.00
11888;BME280;6003;42.756;23.130;2023-03-11T02:06:10;154451.28;;;7.93;100.00
11888;BME280;6003;42.756;23.130;2023-03-11T02:08:37;154459.19;;;7.96;100.00
11888;BME280;6003;42.756;23.130;2023-03-11T02:11:08;154473.69;;;8.02;100.00
11888;BME280;6003;42.756;23.130;2023-03-11T02:13:37;154472.41;;;8.01;100.00
11888;BME280;6003;42.756;23.130;2023-03-11T02:16:06;154467.09;;;7.99;100.00
11888;BME280;6003;42.756;23.130;2023-03-11T02:18:33;154459.19;;;7.96;100.00
11888;BME280;6003;42.756;23.130;2023-03-11T02:21:07;154440.75;;;7.89;100.00
11888;BME280;6003;42.756;23.130;2023-03-11T02:23:45;154348.41;;;7.53;100.00
11888;BME280;6003;42.756;23.130;2023-03-11T02:26:19;154340.50;;;7.50;100.00
11888;BME280;6003;42.756;23.130;2023-03-11T02:28:49;154373.50;;;7.63;100.00
11888;BME280;6003;42.756;23.130;2023-03-11T02:31:18;154401.16;;;7.74;100.00
11888;BME280;6003;42.756;23.130;2023-03-11T02:33:48;154410.41;;;7.77;100.00
11888;BME280;6003;42.756;23.130;2023-03-11T02:36:31;154432.84;;;7.86;100.00
11888;BME280;6003;42.756;23.130;2023-03-11T02:38:59;154423.56;;;7.82;100.00
11888;BME280;6003;42.756;23.130;2023-03-11T02:41:26;154436.78;;;7.87;100.00
11888;BME280;6003;42.756;23.130;2023-03-11T02:43:56;154422.25;;;7.82;100.00
11888;BME280;6003;42.756;23.130;2023-03-11T02:46:23;154432.84;;;7.86;100.00
11888;BME280;6003;42.756;23.130;2023-03-11T02:48:51;154427.53;;;7.84;100.00
11888;BME280;6003;42.756;23.130;2023-03-11T02:51:19;154449.97;;;7.93;100.00
11888;BME280;6003;42.756;23.130;2023-03-11T02:53:48;154461.88;;;7.97;100.00
11888;BME280;6003;42.756;23.130;2023-03-11T02:56:16;154444.69;;;7.90;100.00
11888;BME280;6003;42.756;23.130;2023-03-11T02:58:43;154444.69;;;7.90;100.00
11888;BME280;6003;42.756;23.130;2023-03-11T03:01:11;154443.38;;;7.90;100.00
11888;BME280;6003;42.756;23.130;2023-03-11T03:03:38;154453.94;;;7.94;100.00
11888;BME280;6003;42.756;23.130;2023-03-11T03:06:05;154475.00;;;8.02;100.00
11888;BME280;6003;42.756;23.130;2023-03-11T03:08:32;154485.59;;;8.06;100.00
11888;BME280;6003;42.756;23.130;2023-03-11T03:11:00;154496.13;;;8.10;100.00
11888;BME280;6003;42.756;23.130;2023-03-11T03:13:27;154513.31;;;8.17;100.00
11888;BME280;6003;42.756;23.130;2023-03-11T03:15:55;154534.38;;;8.25;100.00
11888;BME280;6003;42.756;23.130;2023-03-11T03:18:23;154551.56;;;8.32;100.00
11888;BME280;6003;42.756;23.130;2023-03-11T03:20:50;154548.91;;;8.31;100.00
11888;BME280;6003;42.756;23.130;2023-03-11T03:23:18;154540.97;;;8.28;100.00
11888;BME280;6003;42.756;23.130;2023-03-11T03:25:45;154560.78;;;8.35;100.00
11888;BME280;6003;42.756;23.130;2023-03-11T03:28:12;154567.38;;;8.38;100.00
11888;BME280;6003;42.756;23.130;2023-03-11T03:30:40;154564.72;;;8.37;100.00
11888;BME280;6003;42.756;23.130;2023-03-11T03:33:07;154568.75;;;8.39;100.00
11888;BME280;6003;42.756;23.130;2023-03-11T03:35:39;154570.06;;;8.39;100.00
11888;BME280;6003;42.756;23.130;2023-03-11T03:38:07;154581.97;;;8.44;100.00
11888;BME280;6003;42.756;23.130;2023-03-11T03:40:34;154580.66;;;8.43;100.00
11888;BME280;6003;42.756;23.130;2023-03-11T03:43:01;154563.41;;;8.36;100.00
11888;BME280;6003;42.756;23.130;2023-03-11T03:45:27;154576.66;;;8.42;100.00
11888;BME280;6003;42.756;23.130;2023-03-11T03:47:54;154564.72;;;8.37;100.00
11888;BME280;6003;42.756;23.130;2023-03-11T03:50:22;154556.81;;;8.34;100.00
11888;BME280;6003;42.756;23.130;2023-03-11T03:52:50;154567.38;;;8.38;100.00
11888;BME280;6003;42.756;23.130;2023-03-11T03:55:17;154556.81;;;8.34;100.00
11888;BME280;6003;42.756;23.130;2023-03-11T03:57:44;154538.34;;;8.27;100.00
11888;BME280;6003;42.756;23.130;2023-03-11T04:00:12;154550.19;;;8.31;100.00
11888;BME280;6003;42.756;23.130;2023-03-11T04:02:40;154554.19;;;8.33;100.00
11888;BME280;6003;42.756;23.130;2023-03-11T04:05:08;154548.91;;;8.31;100.00
11888;BME280;6003;42.756;23.130;2023-03-11T04:07:35;154526.47;;;8.22;100.00
11888;BME280;6003;42.756;23.130;2023-03-11T04:10:04;154522.53;;;8.21;100.00
11888;BME280;6003;42.756;23.130;2023-03-11T04:12:31;154527.78;;;8.23;100.00
11888;BME280;6003;42.756;23.130;2023-03-11T04:14:58;154511.94;;;8.17;100.00
11888;BME280;6003;42.756;23.130;2023-03-11T04:17:24;154542.28;;;8.28;100.00
11888;BME280;6003;42.756;23.130;2023-03-11T04:19:51;154543.66;;;8.29;100.00
11888;BME280;6003;42.756;23.130;2023-03-11T04:22:18;154551.56;;;8.32;100.00
11888;BME280;6003;42.756;23.130;2023-03-11T04:24:45;154540.97;;;8.28;100.00
11888;BME280;6003;42.756;23.130;2023-03-11T04:27:13;154554.19;;;8.33;100.00
11888;BME280;6003;42.756;23.130;2023-03-11T04:29:40;154574.03;;;8.41;100.00
11888;BME280;6003;42.756;23.130;2023-03-11T04:32:07;154568.75;;;8.39;100.00
11888;BME280;6003;42.756;23.130;2023-03-11T04:37:39;154567.38;;;8.38;100.00
11888;BME280;6003;42.756;23.130;2023-03-11T04:40:07;154583.28;;;8.44;100.00
11888;BME280;6003;42.756;23.130;2023-03-11T04:42:36;154559.47;;;8.35;100.00
11888;BME280;6003;42.756;23.130;2023-03-11T04:45:04;154564.72;;;8.37;100.00
11888;BME280;6003;42.756;23.130;2023-03-11T04:47:31;154551.56;;;8.32;100.00
11888;BME280;6003;42.756;23.130;2023-03-11T04:49:58;154570.06;;;8.39;100.00
11888;BME280;6003;42.756;23.130;2023-03-11T04:52:26;154566.09;;;8.38;100.00
11888;BME280;6003;42.756;23.130;2023-03-11T04:54:52;154568.75;;;8.39;100.00
11888;BME280;6003;42.756;23.130;2023-03-11T04:57:19;154559.47;;;8.35;100.00
11888;BME280;6003;42.756;23.130;2023-03-11T04:59:48;154556.81;;;8.34;100.00
11888;BME280;6003;42.756;23.130;2023-03-11T05:02:14;154550.19;;;8.31;100.00
11888;BME280;6003;42.756;23.130;2023-03-11T05:04:41;154575.34;;;8.41;100.00
11888;BME280;6003;42.756;23.130;2023-03-11T05:07:09;154556.81;;;8.34;100.00
11888;BME280;6003;42.756;23.130;2023-03-11T05:09:36;154554.19;;;8.33;100.00
11888;BME280;6003;42.756;23.130;2023-03-11T05:12:04;154559.47;;;8.35;100.00
11888;BME280;6003;42.756;23.130;2023-03-11T05:14:31;154554.19;;;8.33;100.00
11888;BME280;6003;42.756;23.130;2023-03-11T05:16:59;154572.72;;;8.40;100.00
11888;BME280;6003;42.756;23.130;2023-03-11T05:19:26;154580.66;;;8.43;100.00
11888;BME280;6003;42.756;23.130;2023-03-11T05:22:00;154576.66;;;8.42;100.00
11888;BME280;6003;42.756;23.130;2023-03-11T05:24:27;154568.75;;;8.39;100.00
11888;BME280;6003;42.756;23.130;2023-03-11T05:26:54;154577.97;;;8.42;100.00
11888;BME280;6003;42.756;23.130;2023-03-11T05:29:23;154576.66;;;8.42;100.00
11888;BME280;6003;42.756;23.130;2023-03-11T05:31:50;154597.78;;;8.50;100.00
11888;BME280;6003;42.756;23.130;2023-03-11T05:34:19;154585.88;;;8.45;100.00
11888;BME280;6003;42.756;23.130;2023-03-11T05:36:46;154609.63;;;8.54;100.00
11888;BME280;6003;42.756;23.130;2023-03-11T05:39:13;154597.78;;;8.50;100.00
11888;BME280;6003;42.756;23.130;2023-03-11T05:41:40;154611.00;;;8.55;100.00
11888;BME280;6003;42.756;23.130;2023-03-11T05:44:07;154625.50;;;8.61;100.00
11888;BME280;6003;42.756;23.130;2023-03-11T05:46:34;154630.75;;;8.63;100.00
11888;BME280;6003;42.756;23.130;2023-03-11T05:49:01;154649.25;;;8.70;100.00
11888;BME280;6003;42.756;23.130;2023-03-11T05:51:29;154678.31;;;8.81;100.00
11888;BME280;6003;42.756;23.130;2023-03-11T05:53:56;154708.66;;;8.93;100.00
11888;BME280;6003;42.756;23.130;2023-03-11T05:56:23;154712.59;;;8.94;100.00
11888;BME280;6003;42.756;23.130;2023-03-11T05:58:50;154717.88;;;8.96;100.00
11888;BME280;6003;42.756;23.130;2023-03-11T06:01:18;154717.88;;;8.96;100.00
11888;BME280;6003;42.756;23.130;2023-03-11T06:03:45;154737.72;;;9.04;100.00
11888;BME280;6003;42.756;23.130;2023-03-11T06:06:13;154729.78;;;9.01;100.00
11888;BME280;6003;42.756;23.130;2023-03-11T06:08:41;154750.91;;;9.09;100.00
11888;BME280;6003;42.756;23.130;2023-03-11T06:11:14;154752.22;;;9.10;100.00
11888;BME280;6003;42.756;23.130;2023-03-11T06:13:41;154748.25;;;9.08;100.00
11888;BME280;6003;42.756;23.130;2023-03-11T06:16:08;154749.56;;;9.09;100.00
11888;BME280;6003;42.756;23.130;2023-03-11T06:18:35;154732.41;;;9.02;100.00
11888;BME280;6003;42.756;23.130;2023-03-11T06:21:02;154744.31;;;9.07;100.00
11888;BME280;6003;42.756;23.130;2023-03-11T06:23:30;154760.16;;;9.13;100.00
11888;BME280;6003;42.756;23.130;2023-03-11T06:25:59;154749.56;;;9.09;100.00
11888;BME280;6003;42.756;23.130;2023-03-11T06:28:28;154713.94;;;8.95;100.00
11888;BME280;6003;42.756;23.130;2023-03-11T06:30:55;154773.38;;;9.18;100.00
11888;BME280;6003;42.756;23.130;2023-03-11T06:33:22;154798.44;;;9.27;100.00
11888;BME280;6003;42.756;23.130;2023-03-11T06:35:56;154798.44;;;9.27;100.00
11888;BME280;6003;42.756;23.130;2023-03-11T06:38:23;154794.44;;;9.26;100.00
11888;BME280;6003;42.756;23.130;2023-03-11T06:40:50;154814.28;;;9.34;100.00
11888;BME280;6003;42.756;23.130;2023-03-11T06:43:20;154806.34;;;9.31;100.00
11888;BME280;6003;42.756;23.130;2023-03-11T06:45:47;154830.09;;;9.40;100.00
11888;BME280;6003;42.756;23.130;2023-03-11T06:48:14;154851.25;;;9.48;100.00
11888;BME280;6003;42.756;23.130;2023-03-11T06:50:40;154881.63;;;9.60;100.00
11888;BME280;6003;42.756;23.130;2023-03-11T06:53:07;154909.38;;;9.70;100.00
11888;BME280;6003;42.756;23.130;2023-03-11T06:55:34;154918.59;;;9.74;100.00
11888;BME280;6003;42.756;23.130;2023-03-11T06:58:01;154964.81;;;9.92;100.00
11888;BME280;6003;42.756;23.130;2023-03-11T07:00:29;155001.81;;;10.06;100.00
11888;BME280;6003;42.756;23.130;2023-03-11T07:02:56;155045.44;;;10.23;100.00
11888;BME280;6003;42.756;23.130;2023-03-11T07:05:24;155048.09;;;10.24;100.00
11888;BME280;6003;42.756;23.130;2023-03-11T07:07:53;155062.66;;;10.30;100.00
11888;BME280;6003;42.756;23.130;2023-03-11T07:10:20;155071.94;;;10.33;100.00
11888;BME280;6003;42.756;23.130;2023-03-11T07:12:47;155053.34;;;10.26;100.00
11888;BME280;6003;42.756;23.130;2023-03-11T07:15:14;155122.13;;;10.53;100.00
11888;BME280;6003;42.756;23.130;2023-03-11T07:17:42;155167.06;;;10.70;100.00
11888;BME280;6003;42.756;23.130;2023-03-11T07:20:10;155206.75;;;10.86;100.00
11888;BME280;6003;42.756;23.130;2023-03-11T07:22:37;155254.34;;;11.04;100.00
11888;BME280;6003;42.756;23.130;2023-03-11T07:25:05;155280.81;;;11.14;98.28
11888;BME280;6003;42.756;23.130;2023-03-11T07:27:31;155309.91;;;11.25;96.10
11888;BME280;6003;42.756;23.130;2023-03-11T07:29:59;155336.31;;;11.36;95.95
11888;BME280;6003;42.756;23.130;2023-03-11T07:32:28;155344.25;;;11.39;93.42
11888;BME280;6003;42.756;23.130;2023-03-11T07:35:08;155379.97;;;11.52;93.64
11888;BME280;6003;42.756;23.130;2023-03-11T07:37:35;155508.34;;;12.02;93.83
11888;BME280;6003;42.756;23.130;2023-03-11T07:40:02;155595.72;;;12.36;92.57
11888;BME280;6003;42.756;23.130;2023-03-11T07:42:29;155667.22;;;12.63;89.59
11888;BME280;6003;42.756;23.130;2023-03-11T07:44:58;155701.63;;;12.77;90.11
11888;BME280;6003;42.756;23.130;2023-03-11T07:47:25;155741.38;;;12.92;88.49
11888;BME280;6003;42.756;23.130;2023-03-11T07:49:52;155775.78;;;13.05;88.55
11888;BME280;6003;42.756;23.130;2023-03-11T07:52:20;155751.94;;;12.96;85.79
11888;BME280;6003;42.756;23.130;2023-03-11T07:54:47;155745.31;;;12.94;86.85
11888;BME280;6003;42.756;23.130;2023-03-11T07:57:14;155815.53;;;13.21;87.01
11888;BME280;6003;42.756;23.130;2023-03-11T07:59:41;155871.19;;;13.42;83.17
11888;BME280;6003;42.756;23.130;2023-03-11T08:02:09;155905.66;;;13.56;83.66
11888;BME280;6003;42.756;23.130;2023-03-11T08:04:36;155959.97;;;13.76;83.88
11888;BME280;6003;42.756;23.130;2023-03-11T08:07:03;155974.53;;;13.82;82.03
11888;BME280;6003;42.756;23.130;2023-03-11T08:09:31;155949.38;;;13.72;80.48
11888;BME280;6003;42.756;23.130;2023-03-11T08:11:59;155948.03;;;13.72;81.44
11888;BME280;6003;42.756;23.130;2023-03-11T08:14:26;156024.91;;;14.02;82.88
11888;BME280;6003;42.756;23.130;2023-03-11T08:16:53;156088.50;;;14.26;82.69
11888;BME280;6003;42.756;23.130;2023-03-11T08:19:20;156132.25;;;14.43;81.98
11888;BME280;6003;42.756;23.130;2023-03-11T08:21:47;156165.47;;;14.56;79.99
11888;BME280;6003;42.756;23.130;2023-03-11T08:24:17;156177.38;;;14.60;78.38
11888;BME280;6003;42.756;23.130;2023-03-11T08:26:46;156130.94;;;14.42;79.08
11888;BME280;6003;42.756;23.130;2023-03-11T08:29:12;156199.94;;;14.69;80.11
11888;BME280;6003;42.756;23.130;2023-03-11T08:31:39;156294.09;;;15.05;78.31
11888;BME280;6003;42.756;23.130;2023-03-11T09:44:01;156381.63;;;15.39;69.59
11888;BME280;6003;42.756;23.130;2023-03-11T09:46:56;156347.16;;;15.26;71.65
11888;BME280;6003;42.756;23.130;2023-03-11T09:49:32;156348.47;;;15.26;71.78
11888;BME280;6003;42.756;23.130;2023-03-11T09:52:08;156276.81;;;14.99;71.47
11888;BME280;6003;42.756;23.130;2023-03-11T09:54:37;156231.75;;;14.81;72.98
11888;BME280;6003;42.756;23.130;2023-03-11T09:57:08;156170.75;;;14.58;74.08
11888;BME280;6003;42.756;23.130;2023-03-11T09:59:39;156166.81;;;14.56;75.74
11888;BME280;6003;42.756;23.130;2023-03-11T10:02:11;156137.56;;;14.45;72.59
11888;BME280;6003;42.756;23.130;2023-03-11T10:04:42;156154.84;;;14.52;72.89
11888;BME280;6003;42.756;23.130;2023-03-11T10:07:13;156173.44;;;14.59;73.66
11888;BME280;6003;42.756;23.130;2023-03-11T10:09:47;156230.41;;;14.81;76.71
11888;BME280;6003;42.756;23.130;2023-03-11T10:12:30;156268.88;;;14.96;72.21
11888;BME280;6003;42.756;23.130;2023-03-11T10:15:12;156256.97;;;14.91;69.84
11888;BME280;6003;42.756;23.130;2023-03-11T10:20:52;156251.66;;;14.89;69.41
11888;BME280;6003;42.756;23.130;2023-03-11T10:23:26;156213.19;;;14.74;67.72
11888;BME280;6003;42.756;23.130;2023-03-11T10:26:01;156203.94;;;14.71;64.38
11888;BME280;6003;42.756;23.130;2023-03-11T10:28:32;156205.25;;;14.71;64.04
11888;BME280;6003;42.756;23.130;2023-03-11T10:31:06;156189.34;;;14.65;63.89
11888;BME280;6003;42.756;23.130;2023-03-11T10:33:45;156099.13;;;14.30;63.37
11888;BME280;6003;42.756;23.130;2023-03-11T10:36:17;156059.34;;;14.15;66.72
11888;BME280;6003;42.756;23.130;2023-03-11T10:38:49;156035.50;;;14.06;69.85
11888;BME280;6003;42.756;23.130;2023-03-11T10:41:20;155998.38;;;13.91;71.62
11888;BME280;6003;42.756;23.130;2023-03-11T10:43:51;155897.72;;;13.52;72.86
11888;BME280;6003;42.756;23.130;2023-03-11T10:46:24;155782.41;;;13.08;74.24
11888;BME280;6003;42.756;23.130;2023-03-11T10:48:51;155627.47;;;12.48;78.03
11888;BME280;6003;42.756;23.130;2023-03-11T10:51:20;155697.66;;;12.75;83.44
11888;BME280;6003;42.756;23.130;2023-03-11T10:53:49;155716.19;;;12.82;84.93
11888;BME280;6003;42.756;23.130;2023-03-11T10:56:25;155672.47;;;12.65;80.85
11888;BME280;6003;42.756;23.130;2023-03-11T10:58:52;155765.19;;;13.01;85.02
11888;BME280;6003;42.756;23.130;2023-03-11T11:01:19;155812.84;;;13.20;82.61
11888;BME280;6003;42.756;23.130;2023-03-11T11:03:50;155865.88;;;13.40;80.20
11888;BME280;6003;42.756;23.130;2023-03-11T11:06:23;155979.84;;;13.84;82.84
11888;BME280;6003;42.756;23.130;2023-03-11T11:09:09;156076.59;;;14.21;78.26
11888;BME280;6003;42.756;23.130;2023-03-11T11:11:39;156188.03;;;14.64;80.49
11888;BME280;6003;42.756;23.130;2023-03-11T11:14:06;156243.69;;;14.86;72.15
11888;BME280;6003;42.756;23.130;2023-03-11T11:16:34;156229.09;;;14.80;71.25
11888;BME280;6003;42.756;23.130;2023-03-11T11:19:07;156242.38;;;14.85;71.43
11888;BME280;6003;42.756;23.130;2023-03-11T11:21:36;156316.66;;;15.14;73.93
11888;BME280;6003;42.756;23.130;2023-03-11T11:24:11;156313.97;;;15.13;69.10
11888;BME280;6003;42.756;23.130;2023-03-11T11:26:40;156283.47;;;15.01;68.11
11888;BME280;6003;42.756;23.130;2023-03-11T11:29:13;156298.06;;;15.07;67.90
11888;BME280;6003;42.756;23.130;2023-03-11T11:31:44;156356.44;;;15.29;68.06
11888;BME280;6003;42.756;23.130;2023-03-11T11:34:28;156368.38;;;15.34;68.66
11888;BME280;6003;42.756;23.130;2023-03-11T11:36:55;156389.63;;;15.42;68.43
11888;BME280;6003;42.756;23.130;2023-03-11T11:39:26;156425.41;;;15.56;66.03
11888;BME280;6003;42.756;23.130;2023-03-11T11:41:55;156494.50;;;15.83;67.31
11888;BME280;6003;42.756;23.130;2023-03-11T11:44:27;156587.38;;;16.18;66.78
11888;BME280;6003;42.756;23.130;2023-03-11T11:47:02;156667.06;;;16.49;67.36
11888;BME280;6003;42.756;23.130;2023-03-11T11:49:32;156736.09;;;16.76;65.26
11888;BME280;6003;42.756;23.130;2023-03-11T11:52:04;156648.44;;;16.42;63.01
11888;BME280;6003;42.756;23.130;2023-03-11T11:54:36;156657.72;;;16.45;58.86
11888;BME280;6003;42.756;23.130;2023-03-11T11:57:10;156724.13;;;16.71;62.15
11888;BME280;6003;42.756;23.130;2023-03-11T11:59:37;156728.13;;;16.73;59.33
11888;BME280;6003;42.756;23.130;2023-03-11T12:02:17;156730.75;;;16.74;61.91
11888;BME280;6003;42.756;23.130;2023-03-11T12:04:53;156633.84;;;16.36;61.52
11888;BME280;6003;42.756;23.130;2023-03-11T12:07:38;156521.00;;;15.93;60.84
11888;BME280;6003;42.756;23.130;2023-03-11T12:10:17;156510.41;;;15.89;62.74
11888;BME280;6003;42.756;23.130;2023-03-11T12:12:56;156559.50;;;16.08;61.23
11888;BME280;6003;42.756;23.130;2023-03-11T12:15:32;156547.56;;;16.03;61.28
11888;BME280;6003;42.756;23.130;2023-03-11T12:18:08;156481.22;;;15.77;61.99
11888;BME280;6003;42.756;23.130;2023-03-11T12:20:42;156454.59;;;15.67;63.26
11888;BME280;6003;42.756;23.130;2023-03-11T12:23:16;156438.69;;;15.61;63.08
11888;BME280;6003;42.756;23.130;2023-03-11T12:25:56;156444.00;;;15.63;64.69
11888;BME280;6003;42.756;23.130;2023-03-11T12:28:37;156442.69;;;15.63;62.56
11888;BME280;6003;42.756;23.130;2023-03-11T12:31:08;156398.91;;;15.46;61.11
11888;BME280;6003;42.756;23.130;2023-03-11T12:33:37;156364.38;;;15.32;64.81
11888;BME280;6003;42.756;23.130;2023-03-11T12:36:21;156355.09;;;15.29;64.19
11888;BME280;6003;42.756;23.130;2023-03-11T12:38:50;156364.38;;;15.32;65.54
11888;BME280;6003;42.756;23.130;2023-03-11T12:41:35;156329.94;;;15.19;66.46
11888;BME280;6003;42.756;23.130;2023-03-11T12:44:25;156279.50;;;15.00;64.81
11888;BME280;6003;42.756;23.130;2023-03-11T12:47:17;156141.53;;;14.47;65.56
11888;BME280;6003;42.756;23.130;2023-03-11T12:49:45;156088.50;;;14.26;67.06
11888;BME280;6003;42.756;23.130;2023-03-11T12:52:19;156027.53;;;14.03;68.23
11888;BME280;6003;42.756;23.130;2023-03-11T12:54:47;155993.06;;;13.89;69.29
11888;BME280;6003;42.756;23.130;2023-03-11T12:57:30;155901.66;;;13.54;72.13
11888;BME280;6003;42.756;23.130;2023-03-11T13:00:14;155725.47;;;12.86;74.49
11888;BME280;6003;42.756;23.130;2023-03-11T13:03:30;155646.03;;;12.55;78.18
11888;BME280;6003;42.756;23.130;2023-03-11T13:06:12;155540.16;;;12.14;80.37
11888;BME280;6003;42.756;23.130;2023-03-11T13:08:47;155368.09;;;11.48;85.36
11888;BME280;6003;42.756;23.130;2023-03-11T13:11:41;155260.94;;;11.06;90.04
11888;BME280;6003;42.756;23.130;2023-03-11T13:16:51;155061.34;;;10.29;96.31
11888;BME280;6003;42.756;23.130;2023-03-11T13:19:47;154955.59;;;9.88;97.02
11888;BME280;6003;42.756;23.130;2023-03-11T13:25:36;154790.50;;;9.24;100.00
11888;BME280;6003;42.756;23.130;2023-03-11T13:28:29;154742.94;;;9.06;100.00
11888;BME280;6003;42.756;23.130;2023-03-11T13:31:12;154692.81;;;8.87;100.00
11888;BME280;6003;42.756;23.130;2023-03-11T13:33:47;154702.06;;;8.90;100.00
11888;BME280;6003;42.756;23.130;2023-03-11T13:36:35;154708.66;;;8.93;100.00
11888;BME280;6003;42.756;23.130;2023-03-11T13:39:21;154769.38;;;9.16;100.00
11888;BME280;6003;42.756;23.130;2023-03-11T13:41:51;154811.66;;;9.33;100.00
11888;BME280;6003;42.756;23.130;2023-03-11T13:44:27;154842.00;;;9.44;100.00
11888;BME280;6003;42.756;23.130;2023-03-11T13:47:00;154889.53;;;9.63;100.00
11888;BME280;6003;42.756;23.130;2023-03-11T13:49:34;154937.13;;;9.81;100.00
11888;BME280;6003;42.756;23.130;2023-03-11T13:52:07;154987.28;;;10.01;100.00
11888;BME280;6003;42.756;23.130;2023-03-11T13:54:41;155020.34;;;10.13;100.00
11888;BME280;6003;42.756;23.130;2023-03-11T13:57:22;155083.81;;;10.38;100.00
11888;BME280;6003;42.756;23.130;2023-03-11T13:59:54;155090.41;;;10.41;100.00
11888;BME280;6003;42.756;23.130;2023-03-11T14:02:23;155107.63;;;10.47;100.00
11888;BME280;6003;42.756;23.130;2023-03-11T14:04:54;155145.94;;;10.62;100.00
11888;BME280;6003;42.756;23.130;2023-03-11T14:07:25;155124.78;;;10.54;99.59
11888;BME280;6003;42.756;23.130;2023-03-11T14:10:13;155097.03;;;10.43;98.91
11888;BME280;6003;42.756;23.130;2023-03-11T14:12:42;155085.13;;;10.38;99.16
11888;BME280;6003;42.756;23.130;2023-03-11T14:15:13;155083.81;;;10.38;100.00
11888;BME280;6003;42.756;23.130;2023-03-11T14:17:42;155102.31;;;10.45;99.73
11888;BME280;6003;42.756;23.130;2023-03-11T14:20:12;155116.88;;;10.51;99.70
11888;BME280;6003;42.756;23.130;2023-03-11T14:22:43;155115.56;;;10.50;99.91
11888;BME280;6003;42.756;23.130;2023-03-11T14:25:15;155143.28;;;10.61;99.79
11888;BME280;6003;42.756;23.130;2023-03-11T14:27:50;155143.28;;;10.61;98.18
11888;BME280;6003;42.756;23.130;2023-03-11T14:30:19;155138.03;;;10.59;97.54